Time;durP1;ratioP1;P1;durP2;ratioP2;P2;SDS_P1;SDS_P2;PMS_P1;PMS_P2;Temp;Humidity;BMP_temperature;BMP_pressure;BME280_temperature;BME280_humidity;BME280_pressure;Samples;Min_cycle;Max_cycle;Signal;HPM_P1;HPM_P2
2022/04/20 00:00:35;;;;;;;37.22;19.85;;;;;;;1.25;66.00;98343.63;5091546;28;20073;-73
2022/04/20 00:03:02;;;;;;;43.60;23.05;;;;;;;1.26;65.81;98350.69;5091858;28;20016;-73
2022/04/20 00:05:28;;;;;;;42.90;21.67;;;;;;;1.26;66.43;98356.88;5091801;28;20097;-74
2022/04/20 00:07:53;;;;;;;49.53;25.27;;;;;;;1.16;65.96;98354.00;5091744;28;20081;-74
2022/04/20 00:10:19;;;;;;;39.70;22.70;;;;;;;1.06;66.04;98354.56;5091700;28;20023;-73
2022/04/20 00:12:44;;;;;;;42.83;23.23;;;;;;;0.92;65.98;98356.69;5091854;28;20087;-74
2022/04/20 00:15:10;;;;;;;44.15;22.65;;;;;;;0.86;66.04;98357.63;5091411;28;20020;-74
2022/04/20 00:17:35;;;;;;;39.75;21.13;;;;;;;0.86;66.53;98358.47;5091912;28;20217;-73
2022/04/20 00:20:01;;;;;;;40.85;22.52;;;;;;;0.86;66.94;98357.63;5091506;28;20389;-73
2022/04/20 00:22:26;;;;;;;41.13;23.73;;;;;;;0.87;66.91;98356.59;5091636;28;20085;-73
2022/04/20 00:24:52;;;;;;;38.63;21.75;;;;;;;0.91;67.55;98346.16;5091499;28;20537;-74
2022/04/20 00:27:17;;;;;;;45.25;26.08;;;;;;;0.96;68.18;98347.06;5091265;28;20043;-73
2022/04/20 00:29:43;;;;;;;43.67;25.65;;;;;;;1.04;68.18;98348.59;5090742;28;20024;-73
2022/04/20 00:32:08;;;;;;;37.03;21.95;;;;;;;1.04;68.30;98343.19;5091273;28;20024;-74
2022/04/20 00:34:34;;;;;;;35.55;21.33;;;;;;;1.01;67.80;98340.97;5090957;28;20035;-73
2022/04/20 00:36:59;;;;;;;35.83;22.50;;;;;;;1.01;68.21;98343.69;5091227;28;20031;-73
2022/04/20 00:39:25;;;;;;;36.67;23.35;;;;;;;1.03;67.90;98330.72;5089652;28;20035;-74
2022/04/20 00:41:52;;;;;;;36.85;22.38;;;;;;;1.08;68.39;98335.44;5090864;28;20410;-74
2022/04/20 00:44:19;;;;;;;35.30;22.45;;;;;;;1.06;68.16;98326.75;5089364;28;20051;-74
2022/04/20 00:46:47;;;;;;;34.17;21.00;;;;;;;1.07;68.57;98336.50;5091013;28;20066;-73
2022/04/20 00:49:14;;;;;;;39.15;23.58;;;;;;;1.12;68.34;98329.31;5087552;28;20054;-73
2022/04/20 00:51:57;;;;;;;35.60;21.58;;;;;;;1.18;69.60;98328.38;5091031;28;20477;-73
2022/04/20 00:54:23;;;;;;;33.90;20.58;;;;;;;1.23;69.15;98324.94;5088599;28;20020;-73
2022/04/20 00:56:48;;;;;;;35.65;23.38;;;;;;;1.25;68.38;98324.72;5090809;28;20363;-73
2022/04/20 00:59:17;;;;;;;51.60;26.08;;;;;;;1.23;68.46;98324.13;5090628;28;20486;-74
2022/04/20 01:01:43;;;;;;;45.17;23.00;;;;;;;1.19;68.70;98318.41;5091043;28;20020;-73
2022/04/20 01:04:08;;;;;;;39.70;22.95;;;;;;;1.11;68.18;98321.47;5089202;28;20443;-73
2022/04/20 01:06:34;;;;;;;37.22;22.60;;;;;;;1.03;68.37;98322.63;5090764;28;20528;-74
2022/04/20 01:09:00;;;;;;;39.67;23.27;;;;;;;0.96;68.22;98316.56;5090774;28;20452;-73
2022/04/20 01:11:27;;;;;;;34.95;21.00;;;;;;;0.92;69.02;98315.38;5088457;28;20386;-73
2022/04/20 01:13:53;;;;;;;35.67;22.38;;;;;;;0.92;68.81;98320.78;5090010;28;20100;-73
2022/04/20 01:16:18;;;;;;;32.88;19.88;;;;;;;0.93;69.26;98317.03;5090522;28;20051;-73
2022/04/20 01:18:44;;;;;;;37.25;22.88;;;;;;;0.98;69.32;98315.25;5090617;28;20074;-73
2022/04/20 01:21:11;;;;;;;40.90;25.35;;;;;;;1.03;68.83;98330.72;5090069;28;20537;-73
2022/04/20 01:23:37;;;;;;;42.38;24.95;;;;;;;1.06;69.11;98332.97;5090164;28;20024;-73
2022/04/20 01:26:07;;;;;;;38.58;23.80;;;;;;;1.02;69.19;98329.94;5090423;28;20027;-73
2022/04/20 01:28:33;;;;;;;42.05;25.67;;;;;;;1.01;68.99;98328.28;5088178;28;20020;-73
2022/04/20 01:30:59;;;;;;;47.35;27.88;;;;;;;0.91;68.87;98328.06;5089952;28;20024;-73
2022/04/20 01:33:24;;;;;;;43.65;26.98;;;;;;;0.83;69.99;98323.00;5089984;28;20085;-73
2022/04/20 01:35:50;;;;;;;46.22;26.98;;;;;;;0.82;69.44;98318.66;5088493;28;20026;-73
2022/04/20 01:38:15;;;;;;;45.97;25.23;;;;;;;0.82;69.70;98330.31;5089028;28;20039;-74
2022/04/20 01:40:41;;;;;;;47.80;27.17;;;;;;;0.85;69.80;98335.22;5089295;28;20028;-73
2022/04/20 01:43:06;;;;;;;47.30;26.60;;;;;;;0.86;70.11;98326.06;5089801;28;20539;-73
2022/04/20 01:45:32;;;;;;;44.70;26.08;;;;;;;0.84;70.06;98330.88;5086805;28;20046;-73
2022/04/20 01:47:57;;;;;;;47.58;25.92;;;;;;;0.79;70.12;98328.06;5090096;28;20012;-73
2022/04/20 01:50:22;;;;;;;44.95;24.55;;;;;;;0.71;69.70;98318.47;5089762;28;20106;-73
2022/04/20 01:52:49;;;;;;;47.15;26.05;;;;;;;0.64;69.52;98325.84;5090074;28;20130;-73
2022/04/20 01:55:16;;;;;;;44.13;25.33;;;;;;;0.62;69.84;98314.47;5091172;28;20016;-73
2022/04/20 01:57:41;;;;;;;47.88;25.40;;;;;;;0.57;70.88;98320.56;5096734;28;20434;-73
2022/04/20 02:00:07;;;;;;;47.08;25.15;;;;;;;0.54;70.16;98314.81;5095841;28;20119;-73
2022/04/20 02:02:37;;;;;;;51.17;26.85;;;;;;;0.49;70.74;98320.91;5096418;28;20024;-73
2022/04/20 02:05:06;;;;;;;50.03;27.95;;;;;;;0.42;70.51;98320.22;5096232;28;20094;-73
2022/04/20 02:07:32;;;;;;;51.38;26.02;;;;;;;0.40;70.64;98316.91;5096090;28;20051;-73
2022/04/20 02:09:58;;;;;;;50.00;25.45;;;;;;;0.37;70.37;98322.78;5096404;28;20054;-73
2022/04/20 02:12:24;;;;;;;45.05;25.90;;;;;;;0.33;70.33;98318.91;5096485;28;20027;-73
2022/04/20 02:14:49;;;;;;;49.00;24.85;;;;;;;0.32;70.49;98314.56;5096045;28;20479;-74
2022/04/20 02:17:15;;;;;;;48.00;25.90;;;;;;;0.31;70.38;98329.09;5096376;28;20024;-73
2022/04/20 02:19:40;;;;;;;51.22;28.45;;;;;;;0.29;70.85;98324.75;5094720;28;20036;-73
2022/04/20 02:22:05;;;;;;;49.75;26.83;;;;;;;0.30;70.35;98325.59;5096487;28;20031;-72
2022/04/20 02:24:31;;;;;;;46.95;25.98;;;;;;;0.35;70.72;98331.13;5096347;28;20036;-73
2022/04/20 02:26:56;;;;;;;43.42;25.45;;;;;;;0.36;70.54;98326.53;5096720;28;20425;-73
2022/04/20 02:29:22;;;;;;;49.25;27.55;;;;;;;0.40;70.64;98330.41;5095759;28;20031;-73
2022/04/20 02:31:48;;;;;;;56.95;33.80;;;;;;;0.38;70.25;98330.66;5096368;28;20016;-73
2022/04/20 02:34:13;;;;;;;49.08;27.73;;;;;;;0.35;70.61;98328.41;5094732;28;20026;-73
2022/04/20 02:36:39;;;;;;;49.13;27.30;;;;;;;0.33;70.51;98327.00;5096530;28;20040;-73
2022/04/20 02:39:05;;;;;;;44.38;24.25;;;;;;;0.28;70.47;98333.09;5096223;28;20016;-72
2022/04/20 02:41:37;;;;;;;49.85;25.85;;;;;;;0.25;70.35;98334.38;5095506;28;20061;-73
2022/04/20 02:44:06;;;;;;;47.92;26.42;;;;;;;0.21;70.47;98332.38;5095784;28;20055;-73
2022/04/20 02:46:32;;;;;;;46.35;25.35;;;;;;;0.17;70.86;98336.59;5095510;28;20040;-73
2022/04/20 02:48:58;;;;;;;41.33;23.40;;;;;;;0.14;70.89;98335.19;5096121;28;20378;-73
2022/04/20 02:51:23;;;;;;;44.95;24.02;;;;;;;0.12;70.56;98339.97;5095688;28;20036;-73
2022/04/20 02:53:49;;;;;;;38.90;23.20;;;;;;;0.09;70.91;98332.34;5095958;28;20024;-73
2022/04/20 02:56:14;;;;;;;44.30;23.95;;;;;;;0.10;70.90;98332.09;5094938;28;20517;-73
2022/04/20 02:58:40;;;;;;;40.22;22.10;;;;;;;0.11;71.09;98331.06;5096195;28;20023;-73
2022/04/20 03:01:06;;;;;;;42.33;23.20;;;;;;;0.12;71.01;98326.50;5095606;28;20587;-73
2022/04/20 03:03:32;;;;;;;42.72;25.15;;;;;;;0.09;70.58;98332.34;5095904;28;20435;-73
2022/04/20 03:05:57;;;;;;;43.25;24.50;;;;;;;0.12;71.09;98329.19;5096173;28;20024;-73
2022/04/20 03:08:24;;;;;;;42.75;22.95;;;;;;;0.12;70.95;98321.91;5091836;28;20020;-73
2022/04/20 03:10:51;;;;;;;45.70;26.30;;;;;;;0.09;70.48;98316.19;5092433;28;20097;-73
2022/04/20 03:13:17;;;;;;;44.85;23.48;;;;;;;0.11;70.93;98309.47;5092555;28;20077;-72
2022/04/20 03:15:43;;;;;;;43.70;23.65;;;;;;;0.08;70.82;98306.44;5092509;28;20031;-73
2022/04/20 03:18:08;;;;;;;40.33;22.67;;;;;;;0.05;70.70;98315.00;5092774;28;20381;-73
2022/04/20 03:20:34;;;;;;;41.50;22.95;;;;;;;0.03;70.41;98314.41;5091913;28;20024;-73
2022/04/20 03:23:00;;;;;;;36.17;20.88;;;;;;;0.01;70.90;98316.50;5092540;28;20062;-73
2022/04/20 03:25:25;;;;;;;40.80;22.25;;;;;;;0.01;70.94;98316.50;5092584;28;20409;-73
2022/04/20 03:27:50;;;;;;;38.83;22.35;;;;;;;-0.04;70.62;98318.00;5092672;28;20020;-73
2022/04/20 03:30:16;;;;;;;35.72;21.20;;;;;;;-0.05;71.05;98315.56;5091988;28;20442;-73
2022/04/20 03:32:42;;;;;;;38.53;21.90;;;;;;;-0.06;70.81;98322.81;5092561;28;20039;-73
2022/04/20 03:35:08;;;;;;;38.05;22.65;;;;;;;-0.09;71.21;98312.47;5092325;28;20024;-73
2022/04/20 03:37:33;;;;;;;37.92;21.08;;;;;;;-0.11;70.98;98313.78;5092230;28;20514;-73
2022/04/20 03:39:59;;;;;;;39.83;20.95;;;;;;;-0.17;71.03;98305.56;5091859;28;20043;-73
2022/04/20 03:42:26;;;;;;;38.33;22.50;;;;;;;-0.21;70.71;98308.97;5092130;28;20020;-73
2022/04/20 03:44:52;;;;;;;39.80;21.45;;;;;;;-0.22;70.95;98310.00;5091795;28;20558;-73
2022/04/20 03:47:17;;;;;;;42.65;24.40;;;;;;;-0.23;71.22;98303.78;5091955;28;20120;-73
2022/04/20 03:49:43;;;;;;;36.75;22.58;;;;;;;-0.24;71.10;98298.63;5091641;28;20119;-73
2022/04/20 03:52:08;;;;;;;38.03;22.90;;;;;;;-0.27;71.18;98302.59;5092133;28;20020;-73
2022/04/20 03:54:37;;;;;;;43.35;23.17;;;;;;;-0.31;71.55;98307.63;5091523;28;20024;-73
2022/04/20 03:57:03;;;;;;;45.55;24.60;;;;;;;-0.34;71.67;98299.16;5091803;28;20024;-73
2022/04/20 03:59:29;;;;;;;43.58;24.48;;;;;;;-0.35;71.96;98306.44;5091294;28;20504;-73
2022/04/20 04:01:54;;;;;;;45.88;24.90;;;;;;;-0.35;72.55;98302.91;5091640;28;20028;-73
2022/04/20 04:04:20;;;;;;;48.25;24.30;;;;;;;-0.33;72.24;98304.34;5091342;28;20500;-73
2022/04/20 04:06:46;;;;;;;49.88;25.15;;;;;;;-0.28;72.28;98311.72;5091424;28;20028;-73
2022/04/20 04:09:12;;;;;;;55.55;28.73;;;;;;;-0.28;72.51;98316.31;5091918;28;20024;-72
2022/04/20 04:11:38;;;;;;;50.17;26.25;;;;;;;-0.29;72.72;98307.38;5091360;28;20390;-74
2022/04/20 04:14:03;;;;;;;52.10;26.38;;;;;;;-0.27;72.77;98315.25;5091239;28;20043;-73
2022/04/20 04:16:29;;;;;;;60.63;29.08;;;;;;;-0.28;72.78;98313.63;5091513;28;20453;-73
2022/04/20 04:18:54;;;;;;;60.25;29.98;;;;;;;-0.27;73.04;98307.16;5090990;28;20030;-73
2022/04/20 04:21:20;;;;;;;62.85;31.50;;;;;;;-0.25;73.48;98311.28;5090102;28;20478;-73
2022/04/20 04:23:46;;;;;;;58.88;28.98;;;;;;;-0.21;73.33;98308.97;5091854;28;20089;-73
2022/04/20 04:26:11;;;;;;;55.88;27.70;;;;;;;-0.17;73.33;98312.81;5092532;28;20028;-74
2022/04/20 04:28:37;;;;;;;52.50;28.48;;;;;;;-0.10;74.13;98316.22;5089308;28;20041;-74
2022/04/20 04:31:02;;;;;;;50.20;27.08;;;;;;;0.01;73.64;98320.00;5085650;28;20036;-73
2022/04/20 04:33:28;;;;;;;54.67;28.40;;;;;;;0.03;74.36;98312.50;5091470;28;20032;-74
2022/04/20 04:35:53;;;;;;;48.95;27.17;;;;;;;0.07;75.18;98318.28;5091772;28;20028;-74
2022/04/20 04:38:18;;;;;;;55.10;28.15;;;;;;;0.11;74.54;98309.47;5090708;28;20474;-74
2022/04/20 04:40:44;;;;;;;50.42;27.85;;;;;;;0.15;74.58;98312.56;5090725;28;20039;-74
2022/04/20 04:43:09;;;;;;;48.75;26.33;;;;;;;0.20;74.90;98317.25;5091279;28;20031;-74
2022/04/20 04:48:37;;;;;;;44.90;25.80;;;;;;;0.37;75.30;98325.47;5092240;28;20070;-74
2022/04/20 04:51:03;;;;;;;41.47;22.55;;;;;;;0.49;76.09;98329.00;5091183;28;20512;-73
2022/04/20 04:53:29;;;;;;;47.22;23.95;;;;;;;0.58;76.03;98333.00;5087348;28;20099;-74
2022/04/20 04:55:55;;;;;;;46.58;25.15;;;;;;;0.65;76.31;98335.59;5091308;28;20122;-74
2022/04/20 04:58:20;;;;;;;47.90;26.67;;;;;;;0.79;75.97;98335.38;5091797;28;20463;-74
2022/04/20 05:00:46;;;;;;;43.80;24.98;;;;;;;0.91;76.32;98343.44;5091375;28;20028;-74
2022/04/20 05:03:14;;;;;;;45.17;23.83;;;;;;;0.95;76.33;98334.63;5092019;28;20055;-74
2022/04/20 05:05:41;;;;;;;45.08;24.02;;;;;;;1.00;76.54;98342.84;5092177;28;20028;-74
2022/04/20 05:08:06;;;;;;;42.63;23.40;;;;;;;1.08;76.22;98338.16;5091278;28;20478;-74
2022/04/20 05:10:32;;;;;;;43.42;23.65;;;;;;;1.14;75.91;98331.81;5089000;28;20046;-74
2022/04/20 05:12:59;;;;;;;45.88;24.08;;;;;;;1.23;76.35;98341.16;5089846;28;20032;-75
2022/04/20 05:15:25;;;;;;;51.85;26.60;;;;;;;1.25;75.58;98332.81;5090887;28;20586;-75
2022/04/20 05:17:50;;;;;;;45.38;24.75;;;;;;;1.26;76.03;98327.16;5087247;28;20111;-75
2022/04/20 05:20:16;;;;;;;42.42;25.30;;;;;;;1.25;76.25;98330.13;5089722;28;20115;-75
2022/04/20 05:22:42;;;;;;;39.47;23.55;;;;;;;1.27;76.08;98333.41;5090853;28;20035;-75
2022/04/20 05:25:08;;;;;;;40.58;24.10;;;;;;;1.29;75.50;98325.88;5086597;28;20028;-74
2022/04/20 05:27:33;;;;;;;45.13;22.50;;;;;;;1.29;75.94;98331.28;5089944;28;20054;-75
2022/04/20 05:29:59;;;;;;;38.65;21.73;;;;;;;1.30;76.62;98331.03;5089848;28;20127;-74
2022/04/20 05:32:24;;;;;;;40.65;24.60;;;;;;;1.34;76.54;98331.41;5088210;28;20472;-75
2022/04/20 05:34:50;;;;;;;42.03;24.95;;;;;;;1.38;76.55;98329.88;5087698;28;20417;-74
2022/04/20 05:42:43;;;;;;;42.42;21.55;;;;;;;1.38;76.20;98323.63;5091408;28;20081;-74
2022/04/20 05:45:10;;;;;;;40.05;22.45;;;;;;;1.37;76.33;98325.53;5086643;28;20048;-75
2022/04/20 05:47:38;;;;;;;42.72;24.17;;;;;;;1.36;76.45;98329.28;5089595;28;20040;-74
2022/04/20 05:50:04;;;;;;;44.83;22.92;;;;;;;1.34;76.06;98326.00;5091001;28;20077;-75
2022/04/20 05:52:29;;;;;;;46.13;24.65;;;;;;;1.37;76.59;98322.81;5088525;28;20016;-74
2022/04/20 05:54:57;;;;;;;39.45;22.33;;;;;;;1.38;76.68;98316.34;5092325;28;20051;-75
2022/04/20 05:57:23;;;;;;;46.53;23.90;;;;;;;1.39;76.44;98323.41;5091054;28;20020;-74
2022/04/20 05:59:48;;;;;;;44.95;22.50;;;;;;;1.41;76.32;98323.16;5089930;28;20031;-75
2022/04/20 06:02:13;;;;;;;44.63;25.13;;;;;;;1.40;76.31;98318.81;5090365;28;20031;-74
2022/04/20 06:04:39;;;;;;;43.80;22.98;;;;;;;1.45;77.28;98317.00;5086509;28;20427;-75
2022/04/20 06:07:05;;;;;;;45.42;23.92;;;;;;;1.50;76.54;98324.41;5088598;28;20073;-74
2022/04/20 06:09:30;;;;;;;49.67;26.80;;;;;;;1.57;76.78;98310.75;5090464;28;20085;-75
2022/04/20 06:11:55;;;;;;;46.88;27.17;;;;;;;1.67;77.05;98310.13;5090648;28;20023;-75
2022/04/20 06:14:21;;;;;;;38.88;22.23;;;;;;;1.76;76.54;98308.66;5090771;28;20104;-74
2022/04/20 06:16:46;;;;;;;45.15;24.90;;;;;;;1.84;76.71;98308.28;5090243;28;20047;-75
2022/04/20 06:19:12;;;;;;;42.17;22.77;;;;;;;1.88;76.74;98309.44;5087579;28;20032;-75
2022/04/20 06:21:37;;;;;;;40.97;24.13;;;;;;;1.93;76.32;98308.69;5090829;28;20036;-75
2022/04/20 06:24:02;;;;;;;44.05;23.10;;;;;;;1.94;75.49;98315.75;5092985;28;20077;-74
2022/04/20 06:26:28;;;;;;;37.53;22.15;;;;;;;1.96;76.30;98302.00;5088483;28;20063;-74
2022/04/20 06:28:53;;;;;;;36.72;22.45;;;;;;;2.07;76.20;98301.94;5090699;28;20111;-74
2022/04/20 06:31:19;;;;;;;43.28;24.05;;;;;;;2.17;75.90;98297.75;5089381;28;20030;-74
2022/04/20 06:33:44;;;;;;;38.75;21.33;;;;;;;2.25;75.97;98296.53;5089869;28;20020;-74
2022/04/20 06:36:09;;;;;;;38.47;22.02;;;;;;;2.32;75.44;98298.00;5091448;28;20082;-74
2022/04/20 06:38:35;;;;;;;33.65;19.42;;;;;;;2.40;75.42;98293.25;5091169;28;20107;-74
2022/04/20 06:41:00;;;;;;;35.00;20.42;;;;;;;2.44;75.14;98295.22;5091020;28;20020;-77
2022/04/20 06:43:26;;;;;;;36.40;22.77;;;;;;;2.47;75.14;98291.19;5094405;28;20035;-76
2022/04/20 06:45:52;;;;;;;34.08;20.75;;;;;;;2.52;75.55;98288.56;5094718;28;20059;-75
2022/04/20 06:48:17;;;;;;;31.73;18.77;;;;;;;2.59;74.97;98291.09;5097013;28;20023;-74
2022/04/20 06:50:43;;;;;;;35.85;19.38;;;;;;;2.53;74.16;98287.50;5093930;28;20107;-72
2022/04/20 06:58:38;;;;;;;37.10;20.75;;;;;;;2.38;74.28;98274.56;5093527;28;20047;-72
2022/04/20 07:01:06;;;;;;;37.28;22.05;;;;;;;2.41;75.38;98281.34;5093438;28;20402;-72
2022/04/20 07:03:32;;;;;;;36.75;21.33;;;;;;;2.42;74.33;98282.97;5093332;28;20133;-72
2022/04/20 07:05:58;;;;;;;36.35;20.75;;;;;;;2.45;75.07;98282.50;5093371;28;20489;-73
2022/04/20 07:08:24;;;;;;;34.55;19.95;;;;;;;2.46;74.78;98281.44;5093163;28;20028;-73
2022/04/20 07:10:50;;;;;;;37.25;20.83;;;;;;;2.52;74.37;98292.06;5092700;28;20419;-73
2022/04/20 07:13:16;;;;;;;34.83;19.85;;;;;;;2.59;74.73;98286.50;5093110;28;20030;-73
2022/04/20 07:15:42;;;;;;;37.38;21.00;;;;;;;2.65;74.75;98280.06;5092668;28;20036;-71
2022/04/20 07:18:08;;;;;;;36.65;21.85;;;;;;;2.68;74.95;98276.88;5090850;28;20032;-71
2022/04/20 07:20:33;;;;;;;39.60;22.58;;;;;;;2.69;74.57;98277.72;5092729;28;20359;-72
2022/04/20 07:22:59;;;;;;;36.63;21.15;;;;;;;2.68;74.42;98278.78;5092461;28;20024;-72
2022/04/20 07:25:25;;;;;;;36.70;21.48;;;;;;;2.70;74.32;98278.50;5092661;28;20032;-72
2022/04/20 07:27:51;;;;;;;34.47;20.55;;;;;;;2.74;74.63;98274.25;5092999;28;20038;-73
2022/04/20 07:30:17;;;;;;;38.97;22.08;;;;;;;2.77;74.54;98280.00;5092941;28;20115;-73
2022/04/20 07:32:42;;;;;;;35.13;20.67;;;;;;;2.85;75.00;98273.31;5092656;28;20032;-74
2022/04/20 07:35:08;;;;;;;35.67;21.23;;;;;;;2.93;74.76;98269.34;5088095;28;20444;-77
2022/04/20 07:37:34;;;;;;;34.33;21.63;;;;;;;3.01;74.24;98268.13;5087025;28;20038;-70
2022/04/20 07:39:59;;;;;;;33.42;19.52;;;;;;;3.12;74.33;98264.44;5092473;28;20032;-71
2022/04/20 07:42:25;;;;;;;33.63;20.25;;;;;;;3.21;74.63;98262.94;5091724;28;20546;-70
2022/04/20 07:44:54;;;;;;;35.58;20.70;;;;;;;3.25;74.33;98268.69;5092104;28;20052;-70
2022/04/20 07:47:22;;;;;;;32.28;19.42;;;;;;;3.22;73.83;98256.44;5092490;28;20032;-70
2022/04/20 07:52:37;;;;;;;31.50;19.65;;;;;;;3.37;73.77;98263.13;5092345;28;20043;-71
2022/04/20 07:55:02;;;;;;;34.95;21.00;;;;;;;3.47;73.39;98251.56;5089613;28;20028;-73
2022/04/20 07:57:29;;;;;;;33.47;21.23;;;;;;;3.49;73.38;98250.22;5090756;28;20098;-74
2022/04/20 07:59:54;;;;;;;41.65;21.95;;;;;;;3.55;72.56;98248.41;5087959;28;20036;-76
2022/04/20 08:02:21;;;;;;;40.65;21.45;;;;;;;3.60;73.40;98253.03;5090228;28;20034;-75
2022/04/20 08:04:46;;;;;;;38.03;20.33;;;;;;;3.68;73.22;98250.69;5090305;28;20119;-75
2022/04/20 08:07:12;;;;;;;40.15;21.17;;;;;;;3.76;72.00;98248.59;5093833;28;20478;-75
2022/04/20 08:09:37;;;;;;;32.20;18.88;;;;;;;3.75;71.91;98253.22;5090828;28;20039;-72
2022/04/20 08:12:02;;;;;;;40.25;21.20;;;;;;;3.76;72.50;98246.72;5088305;28;20016;-73
2022/04/20 08:14:28;;;;;;;49.75;24.15;;;;;;;3.77;71.96;98244.81;5091084;28;20031;-73
2022/04/20 08:16:53;;;;;;;47.90;23.13;;;;;;;3.78;72.42;98241.84;5090879;28;20460;-77
2022/04/20 08:19:19;;;;;;;39.67;21.13;;;;;;;3.79;72.10;98243.50;5089236;28;20028;-75
2022/04/20 08:21:45;;;;;;;41.42;21.85;;;;;;;3.81;71.55;98243.22;5089836;28;20659;-76
2022/04/20 08:24:10;;;;;;;40.40;21.00;;;;;;;3.84;71.90;98246.25;5089225;28;20081;-73
2022/04/20 08:26:35;;;;;;;44.30;22.42;;;;;;;3.87;71.91;98234.06;5090545;28;20036;-75
2022/04/20 08:29:03;;;;;;;39.22;22.13;;;;;;;3.88;72.32;98239.22;5091378;28;20545;-76
2022/04/20 08:31:28;;;;;;;40.58;21.23;;;;;;;3.97;72.02;98228.72;5090383;28;20059;-75
2022/04/20 08:33:54;;;;;;;37.08;21.63;;;;;;;4.06;71.90;98226.34;5090459;28;20043;-75
2022/04/20 08:36:19;;;;;;;34.08;20.10;;;;;;;4.15;71.22;98227.50;5090644;28;20481;-75
2022/04/20 08:38:45;;;;;;;37.00;21.17;;;;;;;4.26;71.20;98222.16;5088651;28;20032;-76
2022/04/20 08:41:14;;;;;;;44.30;22.88;;;;;;;4.32;71.01;98224.63;5086372;28;20024;-75
2022/04/20 08:43:41;;;;;;;41.30;23.40;;;;;;;4.37;71.33;98221.13;5091060;28;20032;-77
2022/04/20 08:46:10;;;;;;;45.00;24.70;;;;;;;4.45;71.16;98217.13;5092338;28;20424;-76
2022/04/20 08:48:35;;;;;;;39.00;22.30;;;;;;;4.54;71.11;98220.97;5091695;28;20600;-79
2022/04/20 08:51:04;;;;;;;39.13;22.02;;;;;;;4.58;70.57;98224.78;5089953;28;20040;-78
2022/04/20 08:53:30;;;;;;;34.35;20.38;;;;;;;4.63;70.60;98224.03;5090614;28;20028;-79
2022/04/20 08:57:15;;;;;;;34.45;20.30;;;;;;;4.69;69.71;98217.50;5089340;28;20527;-79
2022/04/20 08:58:50;;;;;;;34.45;20.13;;;;;;;4.71;70.16;98218.06;5086403;28;20062;-76
2022/04/20 09:01:17;;;;;;;44.15;23.42;;;;;;;4.80;70.15;98212.13;5084756;28;20047;-76
2022/04/20 09:03:46;;;;;;;30.98;18.45;;;;;;;4.89;69.59;98211.34;5089285;28;20523;-76
2022/04/20 09:06:12;;;;;;;36.05;21.50;;;;;;;4.99;69.57;98215.22;5089424;28;20054;-75
2022/04/20 09:08:38;;;;;;;32.25;19.55;;;;;;;5.06;69.46;98223.94;5089521;28;20038;-74
2022/04/20 09:11:04;;;;;;;35.92;20.05;;;;;;;5.17;68.69;98212.03;5089521;28;20028;-78
2022/04/20 09:13:35;;;;;;;39.13;19.77;;;;;;;5.21;68.13;98212.28;5091019;28;20024;-76
2022/04/20 09:16:12;;;;;;;33.58;19.38;;;;;;;5.20;67.76;98205.22;5088940;28;20118;-75
2022/04/20 09:18:39;;;;;;;30.20;18.40;;;;;;;5.16;67.44;98215.00;5089999;28;20530;-76
2022/04/20 09:21:12;;;;;;;34.30;20.02;;;;;;;5.23;68.02;98207.41;5090128;28;20113;-73
2022/04/20 09:23:38;;;;;;;31.15;18.42;;;;;;;5.31;67.87;98201.47;5091112;28;20024;-77
2022/04/20 09:26:12;;;;;;;29.20;18.42;;;;;;;5.37;67.31;98205.00;5089584;28;20035;-76
2022/04/20 09:28:39;;;;;;;33.72;20.05;;;;;;;5.46;67.56;98202.59;5089084;28;20485;-74
2022/04/20 09:31:05;;;;;;;33.35;19.08;;;;;;;5.50;67.38;98200.97;5087785;28;20059;-73
2022/04/20 09:33:49;;;;;;;28.73;17.20;;;;;;;5.56;67.69;98199.88;5089987;28;20040;-77
2022/04/20 09:36:15;;;;;;;29.27;16.75;;;;;;;5.62;67.43;98200.72;5090656;28;20470;-76
2022/04/20 09:39:02;;;;;;;28.15;17.20;;;;;;;5.62;66.33;98198.78;5090766;28;20077;-73
2022/04/20 09:41:27;;;;;;;28.70;17.67;;;;;;;5.57;66.66;98201.50;5089458;28;20039;-74
2022/04/20 09:44:09;;;;;;;28.48;16.85;;;;;;;5.50;66.22;98196.34;5091484;28;20470;-73
2022/04/20 09:49:56;;;;;;;28.27;15.27;;;;;;;5.58;66.12;98203.13;5055218;28;20474;-77
2022/04/20 09:52:34;;;;;;;29.48;16.48;;;;;;;5.58;66.61;98205.06;5091511;28;20031;-74
2022/04/20 09:55:00;;;;;;;28.52;16.52;;;;;;;5.60;66.46;98202.88;5089202;28;20490;-76
2022/04/20 09:57:25;;;;;;;26.08;16.60;;;;;;;5.63;66.11;98197.69;5090741;28;20085;-76
2022/04/20 09:59:57;;;;;;;27.40;16.58;;;;;;;5.66;66.05;98199.88;5085309;28;20049;-74
2022/04/20 10:02:22;;;;;;;27.45;16.45;;;;;;;5.69;66.13;98190.38;5090077;28;20065;-73
2022/04/20 10:04:48;;;;;;;26.58;16.63;;;;;;;5.74;65.13;98186.84;5090259;28;20028;-74
2022/04/20 10:07:14;;;;;;;28.25;16.42;;;;;;;5.86;66.29;98192.00;5090318;28;20486;-74
2022/04/20 10:09:40;;;;;;;27.40;16.63;;;;;;;5.97;65.74;98191.72;5089848;28;20072;-76
2022/04/20 10:12:07;;;;;;;24.85;15.82;;;;;;;6.05;65.38;98189.59;5087047;28;20103;-73
2022/04/20 10:17:25;;;;;;;28.40;16.45;;;;;;;6.23;65.55;98177.31;5092179;28;20570;-77
2022/04/20 10:19:54;;;;;;;23.48;14.65;;;;;;;6.29;65.12;98183.59;5094723;28;20034;-72
2022/04/20 10:22:21;;;;;;;25.00;15.07;;;;;;;6.37;64.62;98185.72;5093740;28;20108;-74
2022/04/20 10:24:50;;;;;;;26.38;14.90;;;;;;;6.46;64.70;98175.09;5093922;28;20397;-74
2022/04/20 10:27:33;;;;;;;21.15;13.75;;;;;;;6.60;64.06;98159.00;5094419;28;20024;-74
2022/04/20 10:30:02;;;;;;;21.23;13.60;;;;;;;6.73;63.90;98163.84;5089914;28;21292;-80
2022/04/20 10:32:37;;;;;;;25.87;15.77;;;;;;;6.82;63.03;98155.91;5092737;28;20032;-80
2022/04/20 10:35:04;;;;;;;19.73;13.35;;;;;;;6.89;64.01;98147.44;5092522;28;20312;-78
2022/04/20 10:37:31;;;;;;;22.17;13.70;;;;;;;6.97;63.20;98149.56;5094433;28;20020;-80
2022/04/20 10:40:16;;;;;;;21.50;12.80;;;;;;;7.02;62.34;98141.38;5090932;28;20043;-79
2022/04/20 10:42:41;;;;;;;19.98;12.30;;;;;;;7.08;61.94;98131.25;5090867;28;20097;-74
2022/04/20 10:45:08;;;;;;;17.42;11.07;;;;;;;7.20;61.88;98139.06;5093104;28;20047;-75
2022/04/20 10:47:40;;;;;;;17.60;10.95;;;;;;;7.27;60.68;98139.59;5095305;28;20036;-76
2022/04/20 10:50:29;;;;;;;18.27;11.57;;;;;;;7.34;60.76;98134.63;5094728;28;20024;-73
2022/04/20 10:53:01;;;;;;;15.82;10.40;;;;;;;7.41;58.92;98134.31;5093534;28;20036;-71
2022/04/20 10:55:36;;;;;;;14.88;8.98;;;;;;;7.43;58.00;98132.09;5094647;28;20616;-71
2022/04/20 10:58:15;;;;;;;13.80;9.07;;;;;;;7.42;57.85;98130.47;5092216;28;20032;-73
2022/04/20 11:00:41;;;;;;;14.23;9.90;;;;;;;7.54;57.87;98132.88;5092961;28;20032;-74
2022/04/20 11:03:10;;;;;;;14.82;10.10;;;;;;;7.72;58.18;98126.72;5091559;28;20115;-75
2022/04/20 11:05:49;;;;;;;16.05;9.65;;;;;;;8.08;58.51;98131.06;5092705;28;20086;-75
2022/04/20 11:08:15;;;;;;;14.43;9.75;;;;;;;8.25;58.11;98135.25;5094067;28;20031;-72
2022/04/20 11:10:42;;;;;;;17.23;10.68;;;;;;;8.33;56.09;98131.88;5093159;28;20390;-72
2022/04/20 11:19:04;;;;;;;13.02;8.23;;;;;;;8.54;54.03;98128.97;5094296;28;20047;-72
2022/04/20 11:21:30;;;;;;;13.18;8.77;;;;;;;8.59;53.44;98132.44;5093695;28;20470;-72
2022/04/20 11:24:09;;;;;;;21.67;11.32;;;;;;;8.59;53.41;98118.78;5094036;28;20028;-72
2022/04/20 11:26:54;;;;;;;10.65;8.52;;;;;;;8.60;54.00;98119.59;5094222;28;20040;-72
2022/04/20 11:29:22;;;;;;;14.95;9.07;;;;;;;8.56;53.66;98119.38;5093323;28;20035;-72
2022/04/20 11:31:57;;;;;;;12.65;8.80;;;;;;;8.54;52.74;98127.03;5093754;28;20028;-73
2022/04/20 11:34:26;;;;;;;12.00;8.65;;;;;;;8.37;52.32;98121.19;5093762;28;20174;-72
2022/04/20 11:36:53;;;;;;;16.25;9.88;;;;;;;8.24;52.58;98119.97;5094408;28;20044;-72
2022/04/20 11:39:28;;;;;;;20.60;10.85;;;;;;;8.13;53.43;98121.97;5093818;28;20024;-72
2022/04/20 11:41:55;;;;;;;16.13;9.40;;;;;;;8.12;54.32;98117.63;5092186;28;20044;-72
2022/04/20 11:44:25;;;;;;;12.35;8.65;;;;;;;8.07;53.48;98123.13;5092712;28;20474;-72
2022/04/20 11:46:52;;;;;;;17.42;10.35;;;;;;;7.98;53.82;98129.22;5092930;28;20057;-74
2022/04/20 11:49:19;;;;;;;15.48;9.18;;;;;;;7.96;53.44;98130.59;5089270;28;20038;-70
2022/04/20 11:52:00;;;;;;;18.10;10.32;;;;;;;7.85;53.27;98133.44;5088782;28;20032;-71